Time;durP1;ratioP1;P1;durP2;ratioP2;P2;SDS_P1;SDS_P2;PMS_P1;PMS_P2;Temp;Humidity;BMP_temperature;BMP_pressure;BME280_temperature;BME280_humidity;BME280_pressure;Samples;Min_cycle;Max_cycle;Signal;HPM_P1;HPM_P2
2023/01/10 00:00:27;;;;;;;18.27;4.68;;;6.10;84.10;;;;;;4986496;28;20061;-74
2023/01/10 00:02:53;;;;;;;21.52;5.65;;;6.10;84.10;;;;;;4986252;28;20174;-74
2023/01/10 00:05:19;;;;;;;15.43;4.85;;;6.10;84.10;;;;;;4982946;28;20098;-74
2023/01/10 00:07:45;;;;;;;18.05;4.22;;;6.20;84.10;;;;;;4985042;28;20088;-74
2023/01/10 00:10:11;;;;;;;19.17;4.60;;;6.10;84.20;;;;;;4988572;28;20022;-74
2023/01/10 00:15:25;;;;;;;17.27;4.07;;;6.10;84.10;;;;;;4991420;28;20054;-74
2023/01/10 00:17:51;;;;;;;14.73;4.03;;;6.20;83.90;;;;;;4983782;28;20506;-74
2023/01/10 00:20:17;;;;;;;17.80;4.28;;;6.20;84.00;;;;;;4984571;28;20069;-74
2023/01/10 00:22:44;;;;;;;18.15;4.20;;;6.10;84.20;;;;;;4979758;28;20045;-74
2023/01/10 00:25:10;;;;;;;16.50;4.60;;;6.10;84.20;;;;;;4986698;28;20060;-74
2023/01/10 00:27:36;;;;;;;17.55;4.45;;;6.00;84.20;;;;;;4986314;28;20034;-74
2023/01/10 00:30:10;;;;;;;18.30;5.03;;;6.00;84.20;;;;;;4989513;28;20076;-74
2023/01/10 00:32:36;;;;;;;16.38;4.25;;;5.90;84.60;;;;;;4989333;28;20031;-74
2023/01/10 00:35:05;;;;;;;21.02;4.25;;;5.80;84.70;;;;;;4992275;28;20801;-74
2023/01/10 00:37:31;;;;;;;17.08;4.63;;;5.90;84.60;;;;;;4982111;28;20042;-74
2023/01/10 00:39:57;;;;;;;15.70;4.10;;;5.80;84.70;;;;;;4987222;28;20571;-73
2023/01/10 00:45:08;;;;;;;20.13;4.60;;;5.70;84.90;;;;;;4997128;28;20187;-75
2023/01/10 00:47:33;;;;;;;19.23;4.70;;;5.70;84.70;;;;;;4993910;28;20470;-75
2023/01/10 00:49:59;;;;;;;18.02;4.38;;;5.70;84.90;;;;;;4985875;28;20382;-75
2023/01/10 00:52:25;;;;;;;20.98;4.25;;;5.70;84.90;;;;;;4993247;28;20081;-75
2023/01/10 00:54:50;;;;;;;21.73;4.93;;;5.60;85.20;;;;;;4995918;28;20033;-74
2023/01/10 00:57:16;;;;;;;23.60;4.75;;;5.60;85.30;;;;;;4977655;28;20756;-75
2023/01/10 00:59:42;;;;;;;21.15;4.57;;;5.60;85.50;;;;;;4989772;28;20027;-75
2023/01/10 01:02:07;;;;;;;22.05;5.88;;;5.50;85.50;;;;;;4990123;28;20767;-74
2023/01/10 01:04:33;;;;;;;18.17;4.70;;;5.50;85.60;;;;;;4999471;28;20114;-74
2023/01/10 01:07:02;;;;;;;18.13;5.20;;;5.40;85.70;;;;;;4991886;28;20050;-75
2023/01/10 01:09:29;;;;;;;21.63;5.43;;;5.40;85.80;;;;;;4997043;28;20022;-75
2023/01/10 01:11:55;;;;;;;24.88;4.78;;;5.40;86.00;;;;;;4990410;28;20036;-76
2023/01/10 01:14:22;;;;;;;14.30;4.10;;;5.40;86.10;;;;;;4986703;28;20185;-75
2023/01/10 01:16:48;;;;;;;21.55;5.35;;;5.30;86.10;;;;;;4992705;28;20046;-75
2023/01/10 01:19:14;;;;;;;19.98;3.88;;;5.40;86.30;;;;;;4998854;28;20492;-74
2023/01/10 01:21:40;;;;;;;19.80;4.70;;;5.30;86.30;;;;;;4990774;28;20571;-74
2023/01/10 01:24:10;;;;;;;24.85;5.50;;;5.40;86.30;;;;;;4993058;28;20432;-75
2023/01/10 01:26:36;;;;;;;18.02;4.00;;;5.30;86.20;;;;;;4990527;28;20397;-74
2023/01/10 01:29:01;;;;;;;22.13;5.50;;;5.30;86.30;;;;;;4991066;28;20113;-74
2023/01/10 01:31:27;;;;;;;22.50;5.78;;;5.30;86.30;;;;;;4987146;28;21008;-75
2023/01/10 01:33:53;;;;;;;21.02;6.00;;;5.30;86.40;;;;;;4985583;28;20760;-74
2023/01/10 01:36:18;;;;;;;28.92;5.25;;;5.30;86.40;;;;;;4986423;28;20037;-75
2023/01/10 01:38:44;;;;;;;24.40;6.63;;;5.30;86.40;;;;;;4976931;28;20488;-74
2023/01/10 01:44:04;;;;;;;26.58;6.15;;;5.20;86.50;;;;;;4985764;28;20049;-75
2023/01/10 01:46:33;;;;;;;27.23;5.57;;;5.30;86.50;;;;;;4986774;28;20096;-74
2023/01/10 01:48:59;;;;;;;21.88;5.30;;;5.30;86.60;;;;;;4982295;28;20036;-74
2023/01/10 01:51:28;;;;;;;28.70;6.05;;;5.30;86.50;;;;;;4985742;28;20790;-74
2023/01/10 01:54:06;;;;;;;19.52;4.88;;;5.20;86.40;;;;;;4988235;28;20085;-74
2023/01/10 01:56:54;;;;;;;23.02;5.40;;;5.20;86.50;;;;;;4987346;28;20049;-74
2023/01/10 01:59:39;;;;;;;24.75;6.03;;;5.20;86.50;;;;;;4977292;28;20024;-74
2023/01/10 02:02:14;;;;;;;21.85;5.22;;;5.30;86.40;;;;;;4983880;28;20034;-76
2023/01/10 02:04:55;;;;;;;28.17;7.30;;;5.30;86.40;;;;;;4987533;28;20018;-74
2023/01/10 02:07:23;;;;;;;25.35;5.32;;;5.20;86.40;;;;;;4980482;28;20296;-75
2023/01/10 02:10:01;;;;;;;27.17;6.30;;;5.20;86.50;;;;;;4991594;28;20026;-73
2023/01/10 02:12:29;;;;;;;22.85;5.53;;;5.20;86.60;;;;;;4985647;28;20041;-75
2023/01/10 02:14:57;;;;;;;27.25;6.00;;;5.30;86.80;;;;;;4988859;28;20482;-75
2023/01/10 02:17:23;;;;;;;25.98;5.80;;;5.20;86.80;;;;;;4980462;28;20108;-74
2023/01/10 02:20:00;;;;;;;24.65;5.97;;;5.20;86.80;;;;;;4987629;28;20101;-74
2023/01/10 02:23:01;;;;;;;23.42;5.43;;;5.20;86.70;;;;;;4979963;28;20031;-74
2023/01/10 02:25:48;;;;;;;24.70;5.50;;;5.20;86.90;;;;;;4994165;28;20022;-74
2023/01/10 02:28:29;;;;;;;25.80;6.10;;;5.20;86.90;;;;;;4979777;28;20034;-74
2023/01/10 02:31:15;;;;;;;30.50;6.22;;;5.10;86.80;;;;;;4987152;28;20038;-74
2023/01/10 02:34:04;;;;;;;22.38;5.28;;;5.10;86.80;;;;;;4989905;28;20050;-74
2023/01/10 02:36:39;;;;;;;26.40;5.55;;;5.10;86.90;;;;;;4993136;28;20066;-74
2023/01/10 02:39:50;;;;;;;29.20;5.80;;;5.10;86.80;;;;;;4982358;28;20049;-74
2023/01/10 02:42:28;;;;;;;32.35;6.50;;;5.10;86.90;;;;;;4986500;28;20050;-74
2023/01/10 02:44:59;;;;;;;23.40;5.47;;;5.00;87.10;;;;;;5006562;28;20140;-74
2023/01/10 02:47:25;;;;;;;23.50;6.15;;;5.00;87.20;;;;;;4987108;28;20085;-74
2023/01/10 02:49:51;;;;;;;23.45;6.45;;;5.00;87.10;;;;;;4992578;28;20534;-74
2023/01/10 02:52:28;;;;;;;27.38;6.13;;;4.90;87.20;;;;;;4981308;28;20113;-75
2023/01/10 02:54:59;;;;;;;26.83;6.43;;;4.90;87.40;;;;;;4980492;28;20584;-74
2023/01/10 02:57:34;;;;;;;31.42;6.22;;;4.80;87.40;;;;;;4989230;28;20038;-74
2023/01/10 03:00:18;;;;;;;23.73;5.90;;;4.80;87.60;;;;;;4985919;28;20026;-75
2023/01/10 03:02:57;;;;;;;22.77;5.50;;;4.80;87.70;;;;;;4993476;28;20049;-74
2023/01/10 03:05:53;;;;;;;24.60;5.55;;;4.70;87.80;;;;;;4995603;28;20022;-74
2023/01/10 03:08:36;;;;;;;29.67;6.25;;;4.70;87.80;;;;;;4989913;28;20708;-75
2023/01/10 03:11:07;;;;;;;26.88;4.20;;;4.60;87.90;;;;;;4988219;28;20875;-74
2023/01/10 03:13:36;;;;;;;24.20;5.30;;;4.60;87.90;;;;;;4981992;28;20032;-74
2023/01/10 03:16:05;;;;;;;23.65;5.78;;;4.60;87.90;;;;;;4993513;28;20093;-74
2023/01/10 03:18:42;;;;;;;25.92;5.05;;;4.50;88.00;;;;;;4990346;28;20022;-76
2023/01/10 03:21:10;;;;;;;22.63;4.75;;;4.50;88.20;;;;;;4993512;28;20513;-74
2023/01/10 03:23:36;;;;;;;25.10;5.55;;;4.50;88.40;;;;;;4989611;28;20041;-74
2023/01/10 03:26:05;;;;;;;23.23;5.18;;;4.50;88.50;;;;;;4994700;28;20026;-73
2023/01/10 03:28:37;;;;;;;31.15;7.38;;;4.50;88.50;;;;;;4992377;28;20022;-74
2023/01/10 03:31:08;;;;;;;26.77;5.70;;;4.50;88.60;;;;;;4988002;28;20149;-74
2023/01/10 03:33:35;;;;;;;27.80;6.45;;;4.40;88.60;;;;;;4993902;28;20112;-74
2023/01/10 03:36:27;;;;;;;27.80;6.38;;;4.40;88.70;;;;;;4992234;28;20045;-74
2023/01/10 03:39:20;;;;;;;23.77;6.35;;;4.40;88.70;;;;;;4985316;28;20027;-74
2023/01/10 03:42:00;;;;;;;26.15;5.90;;;4.50;88.90;;;;;;4992673;28;20100;-75
2023/01/10 03:44:42;;;;;;;23.92;6.22;;;4.50;89.00;;;;;;4985849;28;20157;-74
2023/01/10 03:47:20;;;;;;;32.35;6.38;;;4.50;88.90;;;;;;4985645;28;20632;-74
2023/01/10 03:49:52;;;;;;;22.63;5.45;;;4.40;89.10;;;;;;4987958;28;20109;-75
2023/01/10 03:52:20;;;;;;;24.52;5.82;;;4.40;89.10;;;;;;4986429;28;20046;-73
2023/01/10 03:54:46;;;;;;;26.55;5.45;;;4.40;89.20;;;;;;5000099;28;20010;-74
2023/01/10 03:57:22;;;;;;;28.05;5.25;;;4.40;89.20;;;;;;4988211;28;20070;-74
2023/01/10 03:59:56;;;;;;;28.48;6.00;;;4.30;89.30;;;;;;4987096;28;20026;-74
2023/01/10 04:02:28;;;;;;;32.03;6.82;;;4.40;89.40;;;;;;4989045;28;20045;-74
2023/01/10 04:04:54;;;;;;;30.17;6.28;;;4.30;89.40;;;;;;4982357;28;20033;-74
2023/01/10 04:07:19;;;;;;;26.42;7.00;;;4.30;89.50;;;;;;4988066;28;20038;-74
2023/01/10 04:09:45;;;;;;;29.48;5.38;;;4.30;89.50;;;;;;4991792;28;20176;-74
2023/01/10 04:12:11;;;;;;;28.92;6.25;;;4.30;89.60;;;;;;4993420;28;20044;-75
2023/01/10 04:14:36;;;;;;;26.60;6.85;;;4.30;89.60;;;;;;4993555;28;20104;-75
2023/01/10 04:17:03;;;;;;;40.28;7.10;;;4.30;89.60;;;;;;4993605;28;20467;-74
2023/01/10 04:19:28;;;;;;;27.63;7.47;;;4.30;89.60;;;;;;4988548;28;20731;-74
2023/01/10 04:21:54;;;;;;;30.02;6.55;;;4.30;89.70;;;;;;4983562;28;20030;-75
2023/01/10 04:24:20;;;;;;;26.35;5.72;;;4.30;89.70;;;;;;4986433;28;20115;-74
2023/01/10 04:26:46;;;;;;;36.60;6.45;;;4.30;89.80;;;;;;4993108;28;20687;-75
2023/01/10 04:29:11;;;;;;;23.00;5.38;;;4.20;89.90;;;;;;4990266;28;20026;-74
2023/01/10 04:31:38;;;;;;;28.35;6.07;;;4.30;90.00;;;;;;4988887;28;20065;-75
2023/01/10 04:34:05;;;;;;;29.52;5.53;;;4.20;90.00;;;;;;4987270;28;20015;-74
2023/01/10 04:36:31;;;;;;;17.40;5.18;;;4.30;90.00;;;;;;4987898;28;20057;-74
2023/01/10 04:38:56;;;;;;;25.30;6.40;;;4.30;89.90;;;;;;4989884;28;20018;-74
2023/01/10 04:41:22;;;;;;;28.48;5.55;;;4.20;90.00;;;;;;4985444;28;20509;-74
2023/01/10 04:43:48;;;;;;;30.85;5.35;;;4.20;90.00;;;;;;4985448;28;20084;-75
2023/01/10 04:46:14;;;;;;;32.42;6.85;;;4.20;90.10;;;;;;4985019;28;20038;-74
2023/01/10 04:48:40;;;;;;;26.90;5.90;;;4.30;90.20;;;;;;4987487;28;20023;-74
2023/01/10 04:51:06;;;;;;;32.58;6.25;;;4.30;90.10;;;;;;4985625;28;20033;-74
2023/01/10 04:53:31;;;;;;;32.15;6.15;;;4.30;90.10;;;;;;4993348;28;20034;-74
2023/01/10 04:56:05;;;;;;;32.08;6.13;;;4.30;90.10;;;;;;4990103;28;20558;-73
2023/01/10 04:58:35;;;;;;;29.60;6.13;;;4.30;90.20;;;;;;4988645;28;20026;-74
2023/01/10 05:01:10;;;;;;;29.42;6.00;;;4.30;90.10;;;;;;4991131;28;20026;-74
2023/01/10 05:03:36;;;;;;;25.98;6.10;;;4.30;90.20;;;;;;4989112;28;20019;-75
2023/01/10 05:06:02;;;;;;;34.42;6.82;;;4.30;90.20;;;;;;4994335;28;20033;-74
2023/01/10 05:08:27;;;;;;;33.40;7.32;;;4.30;90.00;;;;;;4988034;28;20026;-74
2023/01/10 05:10:53;;;;;;;23.98;5.45;;;4.30;90.20;;;;;;4992180;28;20471;-74
2023/01/10 05:13:19;;;;;;;25.98;6.22;;;4.30;90.10;;;;;;4981858;28;20026;-74
2023/01/10 05:15:44;;;;;;;27.63;6.05;;;4.20;90.10;;;;;;4991435;28;20730;-74
2023/01/10 05:18:10;;;;;;;31.08;5.68;;;4.20;90.10;;;;;;4988057;28;20491;-74
2023/01/10 05:20:36;;;;;;;28.38;5.68;;;4.20;90.10;;;;;;4997582;28;20100;-74
2023/01/10 05:23:01;;;;;;;26.10;6.07;;;4.20;90.20;;;;;;4994829;28;20036;-74
2023/01/10 05:25:27;;;;;;;29.05;6.43;;;4.20;90.20;;;;;;4990647;28;20088;-75
2023/01/10 05:27:53;;;;;;;23.42;5.20;;;4.10;90.20;;;;;;4987425;28;20041;-74
2023/01/10 05:30:18;;;;;;;22.10;5.35;;;4.10;90.20;;;;;;4988230;28;20026;-74
2023/01/10 05:32:44;;;;;;;28.42;7.07;;;4.10;90.30;;;;;;4989950;28;20022;-74
2023/01/10 05:35:10;;;;;;;30.40;7.07;;;4.10;90.40;;;;;;4985451;28;20477;-74
2023/01/10 05:37:35;;;;;;;28.02;7.38;;;4.00;90.40;;;;;;4984634;28;20073;-74
2023/01/10 05:40:01;;;;;;;28.38;5.88;;;4.00;90.40;;;;;;4984128;28;20029;-74
2023/01/10 05:42:27;;;;;;;26.67;5.90;;;4.00;90.50;;;;;;4989151;28;20037;-74
2023/01/10 05:44:52;;;;;;;38.75;6.25;;;3.90;90.40;;;;;;4987702;28;20105;-74
2023/01/10 05:47:18;;;;;;;30.85;6.13;;;3.90;90.50;;;;;;4983738;28;20454;-74
2023/01/10 05:49:44;;;;;;;29.48;6.57;;;4.00;90.40;;;;;;4982012;28;20737;-74
2023/01/10 05:52:09;;;;;;;29.40;6.80;;;3.90;90.40;;;;;;4980179;28;20769;-74
2023/01/10 05:54:35;;;;;;;22.33;6.32;;;3.90;90.40;;;;;;4983525;28;20073;-74
2023/01/10 05:57:01;;;;;;;34.65;8.32;;;3.90;90.50;;;;;;4979845;28;20125;-74
2023/01/10 05:59:26;;;;;;;35.55;8.82;;;3.90;90.60;;;;;;4988569;28;20395;-74
2023/01/10 06:01:52;;;;;;;28.65;7.43;;;3.80;90.60;;;;;;4976220;28;20138;-74
2023/01/10 06:04:18;;;;;;;32.88;8.77;;;3.80;90.60;;;;;;4983058;28;20022;-74
2023/01/10 06:06:43;;;;;;;37.22;9.93;;;3.80;90.60;;;;;;4981069;28;20130;-74
2023/01/10 06:09:09;;;;;;;30.17;8.13;;;3.80;90.60;;;;;;4979905;28;20205;-74
2023/01/10 06:11:37;;;;;;;28.80;8.27;;;3.80;90.70;;;;;;4984460;28;20061;-73
2023/01/10 06:14:04;;;;;;;28.27;9.20;;;3.70;90.70;;;;;;4986993;28;20125;-74
2023/01/10 06:16:30;;;;;;;32.90;6.63;;;3.70;90.70;;;;;;4982255;28;20062;-73
2023/01/10 06:18:57;;;;;;;22.88;6.47;;;3.70;90.70;;;;;;4981114;28;20041;-74
2023/01/10 06:21:22;;;;;;;31.20;7.03;;;3.70;90.80;;;;;;4977926;28;20073;-74
2023/01/10 06:23:48;;;;;;;29.45;6.07;;;3.70;90.70;;;;;;4985809;28;20641;-73
2023/01/10 06:26:13;;;;;;;32.88;6.00;;;3.60;90.80;;;;;;4978420;28;20030;-73
2023/01/10 06:28:42;;;;;;;28.35;6.00;;;3.70;90.80;;;;;;4987309;28;20101;-74
2023/01/10 06:31:08;;;;;;;36.95;7.40;;;3.80;91.00;;;;;;4983294;28;20184;-73
2023/01/10 06:33:34;;;;;;;27.48;5.45;;;3.80;91.00;;;;;;4982803;28;20526;-74
2023/01/10 06:36:00;;;;;;;20.50;5.40;;;3.80;91.00;;;;;;4984698;28;20034;-74
2023/01/10 06:38:26;;;;;;;22.88;5.22;;;3.90;90.90;;;;;;4983872;28;20037;-74
2023/01/10 06:40:51;;;;;;;28.40;5.65;;;3.80;90.70;;;;;;4981202;28;20076;-74
2023/01/10 06:43:17;;;;;;;25.25;5.32;;;3.80;90.60;;;;;;4984903;28;20063;-74
2023/01/10 06:45:43;;;;;;;27.08;5.60;;;3.90;90.50;;;;;;4983364;28;20053;-74
2023/01/10 06:48:08;;;;;;;24.70;6.40;;;3.80;90.40;;;;;;4991315;28;20022;-74
2023/01/10 06:50:34;;;;;;;29.42;5.60;;;3.80;90.40;;;;;;4983312;28;20030;-74
2023/01/10 06:53:02;;;;;;;30.10;6.18;;;3.80;90.30;;;;;;4987101;28;20033;-74
2023/01/10 06:55:28;;;;;;;28.88;6.80;;;3.80;90.30;;;;;;4987491;28;20491;-74
2023/01/10 06:57:59;;;;;;;28.60;5.80;;;3.70;90.30;;;;;;4987566;28;20026;-74
2023/01/10 07:00:27;;;;;;;36.85;7.10;;;3.80;90.30;;;;;;4985768;28;20038;-74
2023/01/10 07:02:55;;;;;;;27.10;6.25;;;3.80;90.20;;;;;;4982090;28;20023;-74
2023/01/10 07:05:20;;;;;;;33.65;7.32;;;3.70;90.20;;;;;;4994211;28;20659;-74
2023/01/10 07:07:46;;;;;;;39.55;7.65;;;3.70;90.30;;;;;;4991156;28;20030;-74
2023/01/10 07:10:12;;;;;;;26.38;5.88;;;3.70;90.40;;;;;;4985351;28;20022;-75
2023/01/10 07:12:37;;;;;;;31.27;6.13;;;3.70;90.40;;;;;;4987493;28;20027;-75
2023/01/10 07:15:04;;;;;;;27.17;5.45;;;3.70;90.40;;;;;;4984506;28;20050;-74
2023/01/10 07:17:29;;;;;;;25.55;5.80;;;3.70;90.50;;;;;;4983015;28;20038;-71
2023/01/10 07:19:55;;;;;;;26.23;6.10;;;3.80;90.50;;;;;;4987445;28;20079;-72
2023/01/10 07:22:21;;;;;;;26.38;5.35;;;3.80;90.40;;;;;;4985419;28;20109;-71
2023/01/10 07:24:46;;;;;;;24.55;5.60;;;3.80;90.50;;;;;;4983642;28;20091;-71
2023/01/10 07:27:12;;;;;;;21.10;6.80;;;3.80;90.50;;;;;;4988584;28;20038;-72
2023/01/10 07:29:38;;;;;;;27.88;7.05;;;3.80;90.50;;;;;;4982824;28;20040;-71
2023/01/10 07:32:04;;;;;;;21.27;5.88;;;3.80;90.40;;;;;;4984586;28;20847;-71
2023/01/10 07:34:30;;;;;;;23.77;6.15;;;3.80;90.40;;;;;;4981332;28;20459;-72
2023/01/10 07:36:56;;;;;;;28.17;5.75;;;3.80;90.50;;;;;;4983444;28;20035;-71
2023/01/10 07:39:21;;;;;;;22.27;5.57;;;3.90;90.50;;;;;;4987982;28;20056;-71
2023/01/10 07:41:48;;;;;;;24.77;5.97;;;3.90;90.50;;;;;;4988077;28;20034;-70
2023/01/10 07:44:14;;;;;;;24.75;5.78;;;3.90;90.50;;;;;;4982884;28;20030;-71
2023/01/10 07:46:40;;;;;;;20.63;5.72;;;3.90;90.50;;;;;;4982272;28;20073;-71
2023/01/10 07:49:05;;;;;;;28.25;6.00;;;4.00;90.60;;;;;;4989393;28;20482;-70
2023/01/10 07:51:32;;;;;;;22.45;5.40;;;4.00;90.60;;;;;;4986451;28;20027;-71
2023/01/10 07:53:58;;;;;;;21.55;4.88;;;4.00;90.50;;;;;;4985819;28;20034;-71
2023/01/10 07:56:24;;;;;;;20.05;5.07;;;4.00;90.50;;;;;;4984406;28;20034;-71
2023/01/10 07:58:50;;;;;;;28.75;5.80;;;4.10;90.50;;;;;;4988484;28;20026;-71
2023/01/10 08:01:16;;;;;;;22.85;5.28;;;4.10;90.50;;;;;;4983993;28;20058;-71
2023/01/10 08:03:43;;;;;;;23.63;5.68;;;4.10;90.50;;;;;;4987133;28;20029;-71
2023/01/10 08:06:09;;;;;;;29.35;6.97;;;4.10;90.40;;;;;;4985316;28;20509;-72
2023/01/10 08:08:36;;;;;;;22.15;5.38;;;4.20;90.40;;;;;;4991104;28;20510;-72
2023/01/10 08:11:02;;;;;;;21.77;5.53;;;4.20;90.40;;;;;;4996359;28;20042;-72
2023/01/10 08:13:29;;;;;;;26.95;5.88;;;4.30;90.50;;;;;;4990902;28;20017;-72
2023/01/10 08:15:55;;;;;;;22.63;5.20;;;4.30;90.40;;;;;;4984466;28;20042;-72
2023/01/10 08:18:22;;;;;;;22.45;5.35;;;4.30;90.40;;;;;;4984674;28;20151;-71
2023/01/10 08:20:49;;;;;;;24.58;5.78;;;4.30;90.50;;;;;;4986353;28;20034;-73
2023/01/10 08:23:16;;;;;;;20.17;4.50;;;4.30;90.40;;;;;;4983975;28;20030;-71
2023/01/10 08:25:42;;;;;;;23.67;4.90;;;4.40;90.40;;;;;;4984443;28;20035;-71
2023/01/10 08:28:08;;;;;;;20.83;5.25;;;4.40;90.40;;;;;;4986231;28;20357;-73
2023/01/10 08:30:35;;;;;;;26.17;6.43;;;4.40;90.50;;;;;;4989234;28;20713;-71
2023/01/10 08:33:02;;;;;;;21.80;6.10;;;4.40;90.40;;;;;;4984075;28;20361;-72
2023/01/10 08:35:28;;;;;;;29.45;6.57;;;4.50;90.50;;;;;;4986835;28;20057;-71
2023/01/10 08:37:58;;;;;;;21.10;6.43;;;4.50;90.50;;;;;;4979345;28;20061;-71
2023/01/10 08:40:25;;;;;;;27.67;6.32;;;4.60;90.50;;;;;;4983363;28;20109;-72
2023/01/10 08:43:04;;;;;;;22.88;5.18;;;4.60;90.40;;;;;;4986129;28;20031;-71
2023/01/10 08:45:30;;;;;;;21.30;5.28;;;4.60;90.50;;;;;;4987298;28;20031;-71
2023/01/10 08:47:56;;;;;;;27.05;5.68;;;4.60;90.50;;;;;;4987145;28;20034;-71
2023/01/10 08:50:23;;;;;;;27.75;5.97;;;4.60;90.40;;;;;;4986108;28;20569;-72
2023/01/10 08:52:50;;;;;;;18.63;5.55;;;4.70;90.30;;;;;;4981774;28;20019;-72
2023/01/10 08:55:16;;;;;;;27.10;6.65;;;4.70;90.30;;;;;;4981511;28;20387;-71
2023/01/10 08:57:42;;;;;;;23.02;6.63;;;4.80;90.20;;;;;;4978551;28;20112;-73
2023/01/10 09:00:08;;;;;;;27.95;7.22;;;4.90;90.00;;;;;;4990562;28;20740;-72
2023/01/10 09:02:34;;;;;;;26.98;5.78;;;4.90;89.80;;;;;;4983993;28;20031;-73
2023/01/10 09:05:00;;;;;;;21.90;6.72;;;4.90;89.70;;;;;;4992331;28;20044;-72
2023/01/10 09:07:25;;;;;;;23.38;5.68;;;5.00;89.60;;;;;;4996005;28;20072;-71
2023/01/10 09:09:51;;;;;;;34.95;6.68;;;5.10;89.40;;;;;;4989562;28;20952;-71
2023/01/10 09:15:01;;;;;;;27.70;9.95;;;5.00;89.60;;;;;;4987677;28;20077;-71
2023/01/10 09:17:27;;;;;;;34.95;12.63;;;5.10;89.70;;;;;;4980507;28;20102;-70
2023/01/10 09:19:54;;;;;;;30.95;8.23;;;5.10;89.60;;;;;;4980514;28;20113;-71
2023/01/10 09:22:20;;;;;;;30.17;7.25;;;5.20;89.50;;;;;;4972364;28;20030;-72
2023/01/10 09:24:46;;;;;;;26.85;6.05;;;5.20;89.30;;;;;;4981747;28;20035;-72
2023/01/10 09:27:11;;;;;;;21.73;5.65;;;5.20;89.30;;;;;;4978250;28;20042;-72
2023/01/10 09:29:37;;;;;;;28.85;6.85;;;5.20;89.30;;;;;;4980664;28;20113;-72
2023/01/10 09:32:03;;;;;;;24.60;5.97;;;5.30;89.10;;;;;;4982762;28;20034;-71
2023/01/10 09:34:29;;;;;;;27.73;7.32;;;5.40;88.80;;;;;;4987324;28;20025;-72
2023/01/10 09:36:55;;;;;;;30.17;6.68;;;5.40;88.70;;;;;;4988433;28;20039;-73
2023/01/10 09:39:20;;;;;;;21.75;6.20;;;5.40;88.60;;;;;;4989395;28;20455;-72
2023/01/10 09:42:07;;;;;;;22.33;6.03;;;5.50;88.60;;;;;;4984438;28;20037;-72
2023/01/10 09:44:57;;;;;;;23.50;5.85;;;5.60;88.50;;;;;;4986417;28;20081;-71
2023/01/10 09:47:40;;;;;;;18.48;5.20;;;5.60;88.50;;;;;;4981647;28;20049;-71
2023/01/10 09:50:32;;;;;;;21.25;6.15;;;5.60;88.40;;;;;;4984640;28;20026;-71
2023/01/10 09:53:22;;;;;;;26.85;5.78;;;5.70;88.20;;;;;;4984352;28;20034;-72
2023/01/10 09:55:54;;;;;;;23.40;6.03;;;5.70;88.10;;;;;;4983294;28;20302;-72
2023/01/10 09:58:26;;;;;;;24.35;6.60;;;5.90;87.90;;;;;;4981870;28;20080;-71
2023/01/10 10:01:06;;;;;;;27.70;6.28;;;5.90;87.90;;;;;;4988369;28;20077;-72
2023/01/10 10:04:03;;;;;;;23.15;5.30;;;5.90;87.60;;;;;;4996213;28;20055;-72
2023/01/10 10:06:29;;;;;;;25.33;5.70;;;6.10;87.60;;;;;;4999065;28;20117;-70
2023/01/10 10:08:56;;;;;;;25.73;6.60;;;6.10;87.20;;;;;;4992073;28;20105;-72
2023/01/10 10:11:24;;;;;;;26.05;6.82;;;6.10;87.10;;;;;;4981133;28;20474;-72
2023/01/10 10:14:21;;;;;;;19.70;6.03;;;6.10;87.30;;;;;;4982750;28;20128;-72
2023/01/10 10:17:19;;;;;;;29.17;6.60;;;6.10;87.50;;;;;;4970552;28;20129;-72
2023/01/10 10:20:09;;;;;;;30.25;7.75;;;6.10;87.40;;;;;;4978086;28;20475;-71
2023/01/10 10:22:44;;;;;;;23.15;5.80;;;6.10;87.20;;;;;;4991128;28;20137;-73
2023/01/10 10:25:31;;;;;;;23.30;6.65;;;6.20;87.20;;;;;;4990847;28;20018;-73
2023/01/10 10:28:30;;;;;;;24.98;6.72;;;6.20;87.20;;;;;;4984283;28;20046;-73
2023/01/10 10:31:03;;;;;;;19.90;5.60;;;6.20;87.10;;;;;;4977222;28;20042;-73
2023/01/10 10:33:50;;;;;;;23.08;6.90;;;6.30;87.00;;;;;;4993380;28;20403;-72
2023/01/10 10:36:34;;;;;;;21.70;5.70;;;6.40;86.90;;;;;;4984247;28;20034;-72
2023/01/10 10:39:01;;;;;;;27.60;6.33;;;6.40;87.00;;;;;;4994082;28;20041;-71
2023/01/10 10:41:43;;;;;;;23.83;6.28;;;6.40;86.90;;;;;;4998927;28;20498;-71
2023/01/10 10:44:31;;;;;;;19.67;5.30;;;6.50;86.90;;;;;;4989184;28;20084;-71
2023/01/10 10:46:58;;;;;;;25.92;5.72;;;6.60;86.80;;;;;;4996353;28;20042;-72
2023/01/10 10:49:43;;;;;;;20.60;5.55;;;6.60;86.50;;;;;;4986753;28;20598;-71
2023/01/10 10:52:13;;;;;;;;;;;6.60;86.40;;;;;;4982519;28;20129;-71
2023/01/10 10:54:38;;;;;;;23.48;5.75;;;6.70;86.40;;;;;;4986365;28;19913;-72
2023/01/10 10:57:04;;;;;;;21.65;6.03;;;6.70;86.40;;;;;;4991198;28;20033;-70
2023/01/10 10:59:30;;;;;;;22.50;5.13;;;6.70;86.20;;;;;;4988067;28;20026;-71
2023/01/10 11:01:55;;;;;;;19.52;5.10;;;6.80;86.20;;;;;;4984601;28;20121;-71
2023/01/10 11:04:22;;;;;;;21.25;6.32;;;6.80;85.90;;;;;;4985177;28;20317;-71
2023/01/10 11:06:49;;;;;;;23.40;5.60;;;6.80;86.00;;;;;;4994787;28;20031;-71
2023/01/10 11:09:37;;;;;;;26.42;5.63;;;6.80;86.00;;;;;;4992047;28;20113;-71
2023/01/10 11:12:05;;;;;;;21.67;6.55;;;6.80;85.90;;;;;;4984180;28;20088;-71
2023/01/10 11:14:48;;;;;;;19.17;4.82;;;6.80;85.90;;;;;;4985563;28;20050;-71
2023/01/10 11:17:18;;;;;;;25.65;6.45;;;6.80;86.30;;;;;;4987686;28;20038;-71
2023/01/10 11:19:56;;;;;;;22.73;6.50;;;6.80;86.50;;;;;;5001389;28;20560;-71
2023/01/10 11:22:24;;;;;;;21.80;5.82;;;6.80;86.90;;;;;;4993179;28;20056;-71
2023/01/10 11:24:55;;;;;;;26.17;6.00;;;6.80;87.20;;;;;;4997683;28;20042;-69
2023/01/10 11:27:25;;;;;;;28.10;6.40;;;6.80;87.40;;;;;;4982838;28;20434;-70
2023/01/10 11:29:52;;;;;;;22.77;6.30;;;6.80;87.60;;;;;;4993381;28;20030;-70
2023/01/10 11:32:21;;;;;;;24.55;6.13;;;6.80;87.80;;;;;;4989390;28;20035;-71
2023/01/10 11:35:05;;;;;;;23.20;5.63;;;6.80;88.00;;;;;;4995789;28;20022;-71
2023/01/10 11:37:33;;;;;;;23.08;5.57;;;6.80;88.10;;;;;;4989999;28;20080;-71
2023/01/10 11:40:22;;;;;;;28.98;6.47;;;6.80;88.40;;;;;;4986371;28;20033;-72
2023/01/10 11:42:49;;;;;;;23.98;5.43;;;6.80;88.50;;;;;;5000891;28;20359;-70
2023/01/10 11:45:17;;;;;;;22.45;5.38;;;6.80;88.60;;;;;;5010764;28;20026;-72
2023/01/10 11:47:54;;;;;;;17.67;5.65;;;6.80;88.70;;;;;;5005352;28;20231;-72
2023/01/10 11:50:24;;;;;;;20.42;5.47;;;6.80;88.80;;;;;;5002251;28;20038;-72
2023/01/10 11:52:50;;;;;;;23.33;5.95;;;6.80;89.10;;;;;;5007657;28;20025;-72
2023/01/10 11:55:29;;;;;;;24.50;6.63;;;6.80;89.20;;;;;;5005056;28;20057;-71
2023/01/10 11:58:12;;;;;;;21.50;5.60;;;6.70;89.30;;;;;;5009152;28;20053;-71
2023/01/10 12:00:45;;;;;;;18.27;4.95;;;6.80;89.50;;;;;;5004237;28;20450;-71
2023/01/10 12:03:36;;;;;;;20.52;5.50;;;6.80;89.60;;;;;;4985837;28;20356;-71
2023/01/10 12:06:08;;;;;;;21.50;5.88;;;6.80;89.60;;;;;;4980378;28;20035;-70
2023/01/10 12:08:36;;;;;;;20.20;5.03;;;6.80;89.70;;;;;;4986245;28;20026;-71
2023/01/10 12:11:07;;;;;;;28.15;5.53;;;6.80;89.80;;;;;;4985772;28;20498;-71
2023/01/10 12:13:55;;;;;;;16.63;5.30;;;6.80;89.80;;;;;;4984287;28;20029;-71
2023/01/10 12:16:27;;;;;;;19.17;5.35;;;6.90;89.90;;;;;;4982018;28;22455;-71
2023/01/10 12:18:59;;;;;;;19.45;4.68;;;6.90;89.90;;;;;;4984137;28;20045;-71
2023/01/10 12:21:45;;;;;;;23.67;6.18;;;6.90;90.00;;;;;;4985357;28;20058;-72
2023/01/10 12:24:22;;;;;;;22.67;5.55;;;6.80;90.10;;;;;;4984173;28;20382;-72
2023/01/10 12:26:52;;;;;;;17.98;4.97;;;6.80;90.20;;;;;;4986862;28;20037;-72
2023/01/10 12:29:24;;;;;;;19.05;5.95;;;6.80;90.40;;;;;;4987709;28;20026;-72
2023/01/10 12:31:52;;;;;;;20.23;5.57;;;6.80;90.40;;;;;;4990732;28;20084;-71
2023/01/10 12:34:35;;;;;;;19.00;5.50;;;6.80;90.60;;;;;;4976311;28;20086;-71
2023/01/10 12:37:22;;;;;;;22.95;5.78;;;6.80;90.70;;;;;;4980425;28;20047;-71
2023/01/10 12:39:58;;;;;;;23.98;5.85;;;6.80;90.80;;;;;;4981239;28;20023;-71
2023/01/10 12:45:47;;;;;;;20.98;5.07;;;6.90;90.90;;;;;;4979626;28;20077;-71
2023/01/10 12:48:25;;;;;;;18.88;5.10;;;6.80;91.00;;;;;;4984357;28;20019;-71
2023/01/10 12:51:04;;;;;;;16.23;5.70;;;6.90;91.10;;;;;;4982442;28;20026;-72
2023/01/10 12:53:35;;;;;;;20.45;5.10;;;6.90;91.10;;;;;;4984597;28;20383;-71
2023/01/10 12:56:06;;;;;;;16.65;4.38;;;6.90;91.10;;;;;;4976003;28;20034;-71
2023/01/10 12:58:45;;;;;;;17.40;5.15;;;6.90;91.10;;;;;;4978143;28;20043;-72
2023/01/10 13:01:17;;;;;;;19.00;5.57;;;6.90;91.30;;;;;;4992746;28;20499;-72
2023/01/10 13:03:45;;;;;;;15.75;5.60;;;6.90;91.50;;;;;;4978516;28;20030;-72
2023/01/10 13:06:26;;;;;;;21.42;6.18;;;6.80;91.70;;;;;;4989011;28;20101;-72
2023/01/10 13:08:52;;;;;;;17.35;5.05;;;6.80;91.70;;;;;;4989672;28;20023;-72
2023/01/10 13:11:23;;;;;;;18.02;5.63;;;6.80;91.80;;;;;;4982960;28;20042;-72
2023/01/10 13:13:55;;;;;;;17.92;5.80;;;6.80;91.90;;;;;;4986715;28;20054;-73
2023/01/10 13:16:39;;;;;;;17.92;5.47;;;6.90;91.90;;;;;;4982206;28;20035;-73
2023/01/10 13:19:23;;;;;;;15.57;4.85;;;6.80;92.00;;;;;;4980095;28;20040;-73